createdAt,value
2022-10-19T00:01:27.761Z,94236.47
2022-10-19T00:03:55.882Z,94240.50
2022-10-19T00:06:28.224Z,94239.59
2022-10-19T00:08:57.219Z,94240.16
2022-10-19T00:11:24.709Z,94231.66
2022-10-19T00:13:53.415Z,94206.69
2022-10-19T00:16:20.373Z,94225.19
2022-10-19T00:18:47.042Z,94233.09
2022-10-19T00:21:19.165Z,94226.47
2022-10-19T00:23:46.643Z,94221.31
2022-10-19T00:26:13.473Z,94220.19
2022-10-19T00:28:40.183Z,94194.22
2022-10-19T00:31:11.003Z,94225.97
2022-10-19T00:33:37.693Z,94215.53
2022-10-19T00:36:05.262Z,94213.31
2022-10-19T00:38:32.446Z,94215.41
2022-10-19T00:40:59.121Z,94208.84
2022-10-19T00:43:32.284Z,94209.88
2022-10-19T00:45:58.948Z,94208.22
2022-10-19T00:48:32.341Z,94187.38
2022-10-19T00:51:00.130Z,94188.78
2022-10-19T00:53:30.467Z,94208.72
2022-10-19T00:56:00.299Z,94201.84
2022-10-19T00:58:27.747Z,94192.13
2022-10-19T01:00:54.807Z,94207.19
2022-10-19T01:03:21.603Z,94206.09
2022-10-19T01:05:49.312Z,94205.59
2022-10-19T01:08:16.572Z,94200.75
2022-10-19T01:11:03.862Z,94208.31
2022-10-19T01:13:59.627Z,94181.97
2022-10-19T01:16:31.867Z,94188.59
2022-10-19T01:19:15.959Z,94178.72
2022-10-19T01:21:52.728Z,94184.59
2022-10-19T01:25:04.102Z,94206.44
2022-10-19T01:27:49.519Z,94208.72
2022-10-19T01:30:40.022Z,94202.00
2022-10-19T01:33:42.256Z,94214.91
2022-10-19T01:36:09.017Z,94211.03
2022-10-19T01:38:52.916Z,94207.06
2022-10-19T01:41:36.856Z,94200.47
2022-10-19T01:44:19.095Z,94207.59
2022-10-19T01:46:52.793Z,94150.19
2022-10-19T01:49:26.914Z,94205.53
2022-10-19T01:54:30.514Z,94198.16
2022-10-19T01:57:01.343Z,94205.88
2022-10-19T01:59:29.138Z,94199.81
2022-10-19T02:01:56.147Z,94201.97
2022-10-19T02:04:24.907Z,94198.22
2022-10-19T02:06:55.452Z,94188.84
2022-10-19T02:09:22.144Z,94194.41
2022-10-19T02:11:57.337Z,94199.13
2022-10-19T02:14:31.626Z,94189.41
2022-10-19T02:17:06.423Z,94167.50
2022-10-19T02:19:33.110Z,94174.84
2022-10-19T02:21:59.873Z,94167.22
2022-10-19T02:24:26.444Z,94193.69
2022-10-19T02:26:54.213Z,94153.16
2022-10-19T02:29:20.979Z,94193.50
2022-10-19T02:31:48.160Z,94186.38
2022-10-19T02:34:14.856Z,94186.00
2022-10-19T02:36:41.624Z,94182.34
2022-10-19T02:39:09.026Z,94176.75
2022-10-19T02:42:01.783Z,94179.75
2022-10-19T02:44:40.644Z,94178.38
2022-10-19T02:47:15.101Z,94174.75
2022-10-19T02:49:43.579Z,94165.69
2022-10-19T02:52:12.514Z,94167.50
2022-10-19T02:54:42.907Z,94163.41
2022-10-19T02:57:18.215Z,94155.59
2022-10-19T02:59:45.682Z,94157.28
2022-10-19T03:02:13.499Z,94143.53
2022-10-19T03:04:41.691Z,94152.59
2022-10-19T03:07:17.120Z,94156.22
2022-10-19T03:09:44.624Z,94148.28
2022-10-19T03:12:13.032Z,94150.28
2022-10-19T03:14:39.778Z,94131.84
2022-10-19T03:17:06.400Z,94160.38
2022-10-19T03:19:34.084Z,94152.22
2022-10-19T03:22:00.968Z,94148.22
2022-10-19T03:24:27.679Z,94154.94
2022-10-19T03:26:54.324Z,94153.78
2022-10-19T03:29:20.996Z,94146.34
2022-10-19T03:31:47.573Z,94142.28
2022-10-19T03:34:14.213Z,94146.09
2022-10-19T03:36:41.713Z,94152.59
2022-10-19T03:39:11.937Z,94147.63
2022-10-19T03:41:39.719Z,94149.19
2022-10-19T03:44:07.819Z,94154.88
2022-10-19T03:46:35.469Z,94143.13
2022-10-19T03:49:02.567Z,94120.59
2022-10-19T03:51:30.775Z,94137.38
2022-10-19T03:54:03.817Z,94143.00
2022-10-19T03:56:32.210Z,94127.53
2022-10-19T03:59:01.520Z,94151.31
2022-10-19T04:01:39.822Z,94146.34
2022-10-19T04:04:10.339Z,94143.69
2022-10-19T04:06:39.573Z,94131.84
2022-10-19T04:09:08.466Z,94128.56
2022-10-19T04:11:35.550Z,94142.34
2022-10-19T04:14:02.822Z,94144.28
2022-10-19T04:16:30.836Z,94142.50
2022-10-19T04:18:58.755Z,94122.94
2022-10-19T04:21:29.419Z,94146.34
2022-10-19T04:24:07.396Z,94140.59
2022-10-19T04:26:34.909Z,94141.44
2022-10-19T04:29:01.944Z,94137.13
2022-10-19T04:31:29.302Z,94133.78
2022-10-19T04:33:56.687Z,94127.19
2022-10-19T04:36:23.948Z,94140.88
2022-10-19T04:38:51.161Z,94137.69
2022-10-19T04:41:20.232Z,94137.22
2022-10-19T04:43:47.884Z,94139.50
2022-10-19T04:46:16.993Z,94140.66
2022-10-19T04:48:44.458Z,94140.69
2022-10-19T04:51:11.192Z,94105.81
2022-10-19T04:53:39.870Z,94113.75
2022-10-19T04:56:29.385Z,94135.78
2022-10-19T04:59:00.400Z,94130.19
2022-10-19T05:01:28.723Z,94135.16
2022-10-19T05:06:24.490Z,94117.03
2022-10-19T05:08:51.596Z,94135.69
2022-10-19T05:11:19.451Z,94130.25
2022-10-19T05:13:47.050Z,94124.63
2022-10-19T05:16:18.996Z,94122.25
2022-10-19T05:18:58.903Z,94123.22
2022-10-19T05:21:28.682Z,94119.28
2022-10-19T05:23:56.308Z,94124.31
2022-10-19T05:26:24.956Z,94126.63
2022-10-19T05:28:57.147Z,94119.69
2022-10-19T05:31:26.579Z,94122.31
2022-10-19T05:33:53.724Z,94123.28
2022-10-19T05:36:26.235Z,94100.22
2022-10-19T05:38:54.980Z,94118.78
2022-10-19T05:41:22.535Z,94121.84
2022-10-19T05:43:56.693Z,94105.69
2022-10-19T05:46:24.861Z,94116.28
2022-10-19T05:48:51.751Z,94109.34
2022-10-19T05:51:21.090Z,94109.03
2022-10-19T05:53:47.933Z,94107.75
2022-10-19T05:56:17.666Z,94100.28
2022-10-19T05:58:44.703Z,94095.84
2022-10-19T06:01:12.152Z,94103.75
2022-10-19T06:03:38.802Z,94109.16
2022-10-19T06:06:07.002Z,94097.56
2022-10-19T06:08:34.667Z,94111.38
2022-10-19T06:11:15.919Z,94110.38
2022-10-19T06:13:43.740Z,94109.28
2022-10-19T06:16:11.629Z,94111.50
2022-10-19T06:18:39.207Z,94110.53
2022-10-19T06:21:08.239Z,94121.09
2022-10-19T06:23:35.471Z,94118.25
2022-10-19T06:26:05.536Z,94110.13
2022-10-19T06:28:32.683Z,94126.22
2022-10-19T06:30:59.971Z,94118.31
2022-10-19T06:33:27.849Z,94117.00
2022-10-19T06:35:54.494Z,94118.94
2022-10-19T06:38:21.415Z,94108.13
2022-10-19T06:40:49.142Z,94125.75
2022-10-19T06:43:16.192Z,94120.09
2022-10-19T06:45:42.901Z,94128.13
2022-10-19T06:48:09.626Z,94109.81
2022-10-19T06:50:36.235Z,94120.91
2022-10-19T06:53:02.838Z,94126.19
2022-10-19T06:55:29.446Z,94134.75
2022-10-19T06:57:56.113Z,94133.28
2022-10-19T07:00:22.778Z,94125.66
2022-10-19T07:02:49.417Z,94128.66
2022-10-19T07:05:16.075Z,94130.91
2022-10-19T07:07:42.991Z,94131.47
2022-10-19T07:10:09.859Z,94131.00
2022-10-19T07:12:36.575Z,94098.47
2022-10-19T07:15:03.581Z,94129.41
2022-10-19T07:17:30.181Z,94122.97
2022-10-19T07:19:56.850Z,94104.78
2022-10-19T07:22:27.935Z,94083.59
2022-10-19T07:24:54.848Z,94115.69
2022-10-19T07:27:21.634Z,94117.44
2022-10-19T07:29:48.233Z,94118.19
2022-10-19T07:32:14.811Z,94110.75
2022-10-19T07:34:41.425Z,94107.53
2022-10-19T07:37:08.024Z,94112.31
2022-10-19T07:39:34.651Z,94103.25
2022-10-19T07:42:01.305Z,94099.84
2022-10-19T07:44:28.101Z,94081.75
2022-10-19T07:46:54.692Z,94109.34
2022-10-19T07:49:21.745Z,94107.84
2022-10-19T07:51:48.924Z,94099.47
2022-10-19T07:54:15.560Z,94109.00
2022-10-19T07:56:42.352Z,94097.38
2022-10-19T07:59:09.990Z,94075.00
2022-10-19T08:01:41.302Z,94090.28
2022-10-19T08:06:55.161Z,94057.91
2022-10-19T08:09:51.403Z,94085.44
2022-10-19T08:12:13.872Z,94075.38
2022-10-19T08:14:41.609Z,94071.75
2022-10-19T08:17:11.824Z,94059.56
2022-10-19T08:19:43.094Z,94061.81
2022-10-19T08:22:10.397Z,94049.00
2022-10-19T08:24:37.007Z,94042.88
2022-10-19T08:27:03.697Z,94030.06
2022-10-19T08:29:31.525Z,94039.09
2022-10-19T08:31:59.148Z,94035.88
2022-10-19T08:34:25.961Z,94023.22
2022-10-19T08:36:52.734Z,94001.47
2022-10-19T08:39:19.418Z,93987.97
2022-10-19T08:42:04.597Z,94000.09
2022-10-19T08:44:49.418Z,93996.63
2022-10-19T08:47:32.434Z,93992.16
2022-10-19T08:50:00.047Z,93987.66
2022-10-19T08:52:35.965Z,93979.03
2022-10-19T08:55:13.090Z,93965.97
2022-10-19T08:58:01.137Z,93980.91
2022-10-19T09:00:52.239Z,93971.50
2022-10-19T09:03:58.487Z,93983.97
2022-10-19T09:06:37.577Z,93978.63
2022-10-19T09:09:05.961Z,93978.41
2022-10-19T09:11:38.959Z,93972.44
2022-10-19T09:14:25.687Z,93963.59
2022-10-19T09:16:54.547Z,93970.31
2022-10-19T09:19:25.798Z,93974.75
2022-10-19T09:22:04.306Z,93969.75
2022-10-19T09:24:43.742Z,93942.75
2022-10-19T09:27:24.698Z,93960.72
2022-10-19T09:29:56.717Z,93933.25
2022-10-19T09:32:33.277Z,93951.47
2022-10-19T09:35:03.007Z,93943.09
2022-10-19T09:37:32.652Z,93918.78
2022-10-19T09:39:59.337Z,93944.56
2022-10-19T09:42:33.339Z,93918.69
2022-10-19T09:45:06.563Z,93937.31
2022-10-19T09:47:39.147Z,93934.16
2022-10-19T09:50:17.427Z,93936.44
2022-10-19T09:52:46.545Z,93940.22
2022-10-19T09:55:33.793Z,93935.59
2022-10-19T09:58:16.456Z,93933.50
2022-10-19T10:00:57.683Z,93930.94
2022-10-19T10:03:35.152Z,93932.31
2022-10-19T10:06:12.460Z,93929.25
2022-10-19T10:08:50.824Z,93916.91
2022-10-19T10:11:28.620Z,93929.69
2022-10-19T10:13:56.652Z,93919.59
2022-10-19T10:16:29.297Z,93920.78
2022-10-19T10:18:58.404Z,93922.03
2022-10-19T10:21:35.315Z,93927.34
2022-10-19T10:24:10.845Z,93915.31
2022-10-19T10:26:43.516Z,93906.38
2022-10-19T10:29:37.969Z,93849.78
2022-10-19T10:32:06.715Z,93887.78
2022-10-19T10:34:50.097Z,93884.81
2022-10-19T10:37:30.620Z,93863.69
2022-10-19T10:40:01.795Z,93885.69
2022-10-19T10:42:52.620Z,93888.63
2022-10-19T10:45:33.577Z,93879.00
2022-10-19T10:48:27.085Z,93872.63
2022-10-19T10:50:54.461Z,93850.59
2022-10-19T10:53:45.248Z,93859.34
2022-10-19T10:56:28.731Z,93864.59
2022-10-19T10:59:03.872Z,93863.22
2022-10-19T11:01:39.970Z,93864.78
2022-10-19T11:04:30.389Z,93868.84
2022-10-19T11:07:14.259Z,93863.31
2022-10-19T11:09:53.716Z,93857.63
2022-10-19T11:12:35.195Z,93856.41
2022-10-19T11:15:12.053Z,93844.69
2022-10-19T11:17:43.965Z,93834.44
2022-10-19T11:20:16.226Z,93835.94
2022-10-19T11:22:45.600Z,93836.50
2022-10-19T11:25:38.164Z,93835.16
2022-10-19T11:28:04.957Z,93827.34
2022-10-19T11:30:42.479Z,93829.91
2022-10-19T11:33:24.927Z,93827.19
2022-10-19T11:35:59.420Z,93820.44
2022-10-19T11:38:46.509Z,93817.59
2022-10-19T11:41:26.890Z,93811.88
2022-10-19T11:44:05.824Z,93813.53
2022-10-19T11:46:53.744Z,93808.38
2022-10-19T11:49:46.147Z,93801.78
2022-10-19T11:52:25.585Z,93800.69
2022-10-19T11:55:13.111Z,93794.19
2022-10-19T11:58:21.376Z,93804.06
2022-10-19T12:01:00.208Z,93795.44
2022-10-19T12:03:50.950Z,93793.28
2022-10-19T12:06:26.817Z,93788.47
2022-10-19T12:08:56.643Z,93788.06
2022-10-19T12:11:54.063Z,93774.78
2022-10-19T12:14:26.029Z,93767.94
2022-10-19T12:16:57.103Z,93766.47
2022-10-19T12:19:29.618Z,93758.81
2022-10-19T12:22:01.575Z,93755.41
2022-10-19T12:24:30.843Z,93750.84
2022-10-19T12:26:58.781Z,93745.66
2022-10-19T12:29:33.528Z,93736.94
2022-10-19T12:32:02.927Z,93709.97
2022-10-19T12:34:56.316Z,93727.81
2022-10-19T12:37:41.022Z,93723.22
2022-10-19T12:40:27.727Z,93722.22
2022-10-19T12:43:07.669Z,93700.09
2022-10-19T12:46:14.754Z,93697.69
2022-10-19T12:48:41.612Z,93686.78
2022-10-19T12:51:12.114Z,93674.63
2022-10-19T12:53:42.731Z,93676.22
2022-10-19T12:56:09.283Z,93671.28
2022-10-19T12:58:46.572Z,93678.38
2022-10-19T13:01:23.567Z,93671.72
2022-10-19T13:04:05.492Z,93678.59
2022-10-19T13:06:35.877Z,93667.00
2022-10-19T13:09:06.919Z,93655.25
2022-10-19T13:14:20.157Z,93658.19
2022-10-19T13:17:03.412Z,93655.13
2022-10-19T13:19:30.259Z,93655.16
2022-10-19T13:22:16.831Z,93651.50
2022-10-19T13:24:43.459Z,93653.19
2022-10-19T13:27:24.900Z,93647.91
2022-10-19T13:29:51.949Z,93643.53
2022-10-19T13:32:32.122Z,93651.97
2022-10-19T13:35:20.790Z,93656.50
2022-10-19T13:38:27.871Z,93656.47
2022-10-19T13:40:57.112Z,93670.22
2022-10-19T13:43:26.033Z,93638.28
2022-10-19T13:46:10.481Z,93653.03
2022-10-19T13:49:01.492Z,93639.31
2022-10-19T13:51:37.190Z,93651.88
2022-10-19T13:54:32.615Z,93664.19
2022-10-19T13:57:05.122Z,93660.28
2022-10-19T13:59:42.864Z,93673.66
2022-10-19T14:02:12.890Z,93671.91
2022-10-19T14:04:42.356Z,93674.44
2022-10-19T14:07:30.739Z,93663.22
2022-10-19T14:10:14.242Z,93662.06
2022-10-19T14:12:44.161Z,93653.66
2022-10-19T14:15:27.975Z,93654.34
2022-10-19T14:17:55.484Z,93678.75
2022-10-19T14:20:28.399Z,93669.31
2022-10-19T14:22:55.114Z,93663.38
2022-10-19T14:25:24.803Z,93660.66
2022-10-19T14:28:00.011Z,93669.06
2022-10-19T14:30:31.424Z,93658.09
2022-10-19T14:33:02.184Z,93652.97
2022-10-19T14:35:35.993Z,93662.19
2022-10-19T14:38:08.533Z,93650.06
2022-10-19T14:40:39.873Z,93655.41
2022-10-19T14:43:23.172Z,93648.50
2022-10-19T14:46:08.205Z,93669.63
2022-10-19T14:48:36.501Z,93665.63
2022-10-19T14:51:09.649Z,93679.66
2022-10-19T14:53:44.621Z,93694.72
2022-10-19T14:56:16.125Z,93707.00
2022-10-19T14:58:55.537Z,93711.22
2022-10-19T15:01:22.215Z,93722.38
2022-10-19T15:03:50.201Z,93715.25
2022-10-19T15:06:27.275Z,93719.41
2022-10-19T15:09:00.040Z,93729.06
2022-10-19T15:11:38.163Z,93712.25
2022-10-19T15:14:20.587Z,93723.84
2022-10-19T15:17:05.836Z,93724.78
2022-10-19T15:19:41.105Z,93724.50
2022-10-19T15:22:23.215Z,93721.28
2022-10-19T15:25:02.012Z,93722.09
2022-10-19T15:27:45.570Z,93709.44
2022-10-19T15:30:18.188Z,93711.25
2022-10-19T15:32:47.424Z,93711.00
2022-10-19T15:35:29.255Z,93704.16
2022-10-19T15:38:03.297Z,93715.69
2022-10-19T15:40:34.586Z,93715.69
2022-10-19T15:43:21.353Z,93715.44
2022-10-19T15:45:48.051Z,93713.13
2022-10-19T15:48:25.295Z,93705.66
2022-10-19T15:50:52.629Z,93698.28
2022-10-19T15:53:20.100Z,93703.13
2022-10-19T15:55:47.168Z,93707.38
2022-10-19T15:58:14.537Z,93718.84
2022-10-19T16:00:42.422Z,93710.63
2022-10-19T16:03:09.223Z,93713.72
2022-10-19T16:05:36.561Z,93716.44
2022-10-19T16:08:07.874Z,93698.94
2022-10-19T16:10:36.835Z,93708.59
2022-10-19T16:13:03.564Z,93711.31
2022-10-19T16:15:30.283Z,93705.91
2022-10-19T16:18:00.032Z,93713.56
2022-10-19T16:20:30.725Z,93713.25
2022-10-19T16:22:58.255Z,93723.81
2022-10-19T16:25:25.248Z,93698.38
2022-10-19T16:27:51.943Z,93716.75
2022-10-19T16:30:18.746Z,93708.75
2022-10-19T16:32:48.092Z,93722.22
2022-10-19T16:35:15.104Z,93694.25
2022-10-19T16:37:41.791Z,93705.81
2022-10-19T16:40:09.318Z,93717.84
2022-10-19T16:42:36.127Z,93712.44
2022-10-19T16:45:03.325Z,93702.03
2022-10-19T16:47:29.931Z,93715.34
2022-10-19T16:50:01.697Z,93723.47
2022-10-19T16:52:31.384Z,93723.16
2022-10-19T16:54:58.898Z,93734.03
2022-10-19T16:57:25.534Z,93732.78
2022-10-19T17:02:21.378Z,93735.94
2022-10-19T17:04:48.235Z,93739.03
2022-10-19T17:07:15.612Z,93743.53
2022-10-19T17:09:43.070Z,93740.28
2022-10-19T17:12:11.646Z,93746.44
2022-10-19T17:14:40.461Z,93752.97
2022-10-19T17:17:08.144Z,93739.03
2022-10-19T17:19:36.161Z,93751.97
2022-10-19T17:22:05.038Z,93735.81
2022-10-19T17:24:31.732Z,93766.69
2022-10-19T17:27:01.848Z,93771.00
2022-10-19T17:29:28.646Z,93774.25
2022-10-19T17:31:55.525Z,93757.09
2022-10-19T17:34:22.123Z,93773.84
2022-10-19T17:36:49.044Z,93771.41
2022-10-19T17:39:18.777Z,93782.66
2022-10-19T17:41:47.046Z,93765.84
2022-10-19T17:44:14.370Z,93789.94
2022-10-19T17:46:41.670Z,93787.34
2022-10-19T17:49:09.784Z,93788.09
2022-10-19T17:51:37.139Z,93800.00
2022-10-19T17:54:10.729Z,93798.81
2022-10-19T17:56:38.649Z,93809.22
2022-10-19T17:59:07.910Z,93807.31
2022-10-19T18:01:35.892Z,93806.88
2022-10-19T18:04:02.578Z,93788.66
2022-10-19T18:06:31.913Z,93801.13
2022-10-19T18:09:00.629Z,93784.78
2022-10-19T18:11:29.857Z,93796.63
2022-10-19T18:13:59.140Z,93793.38
2022-10-19T18:16:37.854Z,93779.44
2022-10-19T18:19:05.459Z,93798.66
2022-10-19T18:21:35.857Z,93800.09
2022-10-19T18:24:03.632Z,93779.81
2022-10-19T18:26:32.480Z,93794.13
2022-10-19T18:29:02.167Z,93783.47
2022-10-19T18:31:30.802Z,93786.72
2022-10-19T18:34:02.517Z,93776.91
2022-10-19T18:36:30.142Z,93776.47
2022-10-19T18:39:00.024Z,93783.38
2022-10-19T18:41:28.051Z,93779.09
2022-10-19T18:43:57.139Z,93770.91
2022-10-19T18:46:26.034Z,93787.69
2022-10-19T18:48:53.697Z,93789.78
2022-10-19T18:51:21.524Z,93788.16
2022-10-19T18:53:48.100Z,93779.97
2022-10-19T18:56:17.320Z,93786.22
2022-10-19T18:58:44.211Z,93782.19
2022-10-19T19:01:15.081Z,93778.16
2022-10-19T19:03:44.512Z,93778.53
2022-10-19T19:06:18.305Z,93764.16
2022-10-19T19:08:45.144Z,93781.38
2022-10-19T19:11:17.080Z,93783.69
2022-10-19T19:13:48.699Z,93766.31
2022-10-19T19:16:15.410Z,93771.75
2022-10-19T19:18:42.171Z,93769.50
2022-10-19T19:21:15.401Z,93763.41
2022-10-19T19:23:42.681Z,93762.19
2022-10-19T19:26:10.398Z,93754.47
2022-10-19T19:28:39.284Z,93758.66
2022-10-19T19:31:09.681Z,93766.28
2022-10-19T19:33:38.195Z,93742.41
2022-10-19T19:36:07.344Z,93756.69
2022-10-19T19:38:34.846Z,93738.91
2022-10-19T19:41:04.988Z,93758.81
2022-10-19T19:43:33.159Z,93763.50
2022-10-19T19:46:06.275Z,93762.84
2022-10-19T19:48:36.489Z,93763.13
2022-10-19T19:51:03.360Z,93737.72
2022-10-19T19:53:30.047Z,93749.84
2022-10-19T19:55:56.640Z,93753.72
2022-10-19T19:58:23.215Z,93749.03
2022-10-19T20:00:49.857Z,93740.88
2022-10-19T20:03:16.533Z,93743.31
2022-10-19T20:05:43.290Z,93738.47
2022-10-19T20:08:11.087Z,93742.09
2022-10-19T20:10:39.602Z,93718.41
2022-10-19T20:13:06.392Z,93743.56
2022-10-19T20:15:33.023Z,93752.78
2022-10-19T20:17:59.660Z,93754.22
2022-10-19T20:20:26.379Z,93756.81
2022-10-19T20:22:52.963Z,93767.41
2022-10-19T20:25:19.652Z,93775.06
2022-10-19T20:27:46.266Z,93780.38
2022-10-19T20:30:14.224Z,93777.75
2022-10-19T20:32:40.880Z,93768.53
2022-10-19T20:35:07.815Z,93750.53
2022-10-19T20:37:34.721Z,93753.63
2022-10-19T20:40:08.170Z,93733.34
2022-10-19T20:42:35.832Z,93746.88
2022-10-19T20:45:03.003Z,93744.00
2022-10-19T20:47:30.060Z,93748.50
2022-10-19T20:49:56.868Z,93748.09
2022-10-19T20:52:23.525Z,93734.13
2022-10-19T20:54:50.204Z,93744.34
2022-10-19T20:57:16.844Z,93743.13
2022-10-19T20:59:45.565Z,93738.00
2022-10-19T21:02:12.182Z,93743.91
2022-10-19T21:04:39.148Z,93750.25
2022-10-19T21:07:05.819Z,93753.22
2022-10-19T21:09:32.649Z,93720.34
2022-10-19T21:12:01.265Z,93749.66
2022-10-19T21:14:29.441Z,93751.50
2022-10-19T21:17:00.660Z,93741.88
2022-10-19T21:19:28.986Z,93748.81
2022-10-19T21:22:01.595Z,93747.34
2022-10-19T21:24:32.353Z,93739.97
2022-10-19T21:27:07.456Z,93740.56
2022-10-19T21:29:34.413Z,93711.91
2022-10-19T21:32:01.133Z,93745.38
2022-10-19T21:34:30.511Z,93722.69
2022-10-19T21:36:57.324Z,93742.09
2022-10-19T21:39:24.028Z,93744.72
2022-10-19T21:41:51.085Z,93720.81
2022-10-19T21:44:18.698Z,93735.47
2022-10-19T21:46:47.811Z,93730.34
2022-10-19T21:49:14.646Z,93718.63
2022-10-19T21:51:47.775Z,93735.59
2022-10-19T21:54:18.104Z,93740.84
2022-10-19T21:56:45.355Z,93744.63
2022-10-19T21:59:12.743Z,93743.75
2022-10-19T22:01:41.630Z,93749.44
2022-10-19T22:04:12.246Z,93746.59
2022-10-19T22:06:39.243Z,93743.41
2022-10-19T22:09:08.497Z,93740.91
2022-10-19T22:11:35.444Z,93736.75
2022-10-19T22:14:03.860Z,93744.06
2022-10-19T22:16:31.778Z,93736.50
2022-10-19T22:18:58.438Z,93741.50
2022-10-19T22:21:28.960Z,93746.81
2022-10-19T22:24:01.448Z,93746.19
2022-10-19T22:26:36.708Z,93744.53
2022-10-19T22:29:04.739Z,93745.13
2022-10-19T22:31:32.241Z,93753.34
2022-10-19T22:34:07.697Z,93730.88
2022-10-19T22:36:34.590Z,93724.78
2022-10-19T22:39:01.251Z,93748.47
2022-10-19T22:41:28.039Z,93748.09
2022-10-19T22:43:54.641Z,93747.34
2022-10-19T22:46:21.333Z,93725.66
2022-10-19T22:48:48.083Z,93731.03
2022-10-19T22:51:14.751Z,93734.75
2022-10-19T22:53:41.451Z,93737.28
2022-10-19T22:56:10.841Z,93732.50
2022-10-19T22:58:37.568Z,93729.91
2022-10-19T23:01:07.367Z,93735.25
2022-10-19T23:03:34.915Z,93721.75
2022-10-19T23:06:01.874Z,93676.91
2022-10-19T23:08:28.603Z,93709.63
2022-10-19T23:10:55.268Z,93700.69
2022-10-19T23:13:22.024Z,93688.09
2022-10-19T23:15:50.442Z,93696.34
2022-10-19T23:18:17.456Z,93710.81
2022-10-19T23:20:53.068Z,93668.13
2022-10-19T23:23:19.683Z,93708.19
2022-10-19T23:26:16.683Z,93704.16
2022-10-19T23:28:45.052Z,93694.16
2022-10-19T23:31:17.316Z,93693.94
2022-10-19T23:33:44.562Z,93704.56
2022-10-19T23:36:17.198Z,93692.56
2022-10-19T23:38:45.464Z,93697.63
2022-10-19T23:41:12.839Z,93688.22
2022-10-19T23:43:40.255Z,93683.69
2022-10-19T23:46:07.399Z,93677.91
2022-10-19T23:48:34.716Z,93678.00
2022-10-19T23:51:09.126Z,93679.91
2022-10-19T23:53:40.821Z,93674.41
2022-10-19T23:56:18.387Z,93675.13
2022-10-19T23:58:45.907Z,93677.94
